createdAt,value
2023-04-19T00:02:05.684Z,95829.81
2023-04-19T00:04:32.549Z,95831.41
2023-04-19T00:06:59.342Z,95827.59
2023-04-19T00:09:25.990Z,95825.19
2023-04-19T00:11:52.973Z,95825.19
2023-04-19T00:14:19.903Z,95821.66
2023-04-19T00:16:46.685Z,95817.66
2023-04-19T00:19:13.319Z,95813.03
2023-04-19T00:21:39.882Z,95819.09
2023-04-19T00:24:06.718Z,95812.03
2023-04-19T00:26:33.270Z,95813.13
2023-04-19T00:29:00.019Z,95812.34
2023-04-19T00:31:26.740Z,95812.94
2023-04-19T00:33:53.402Z,95810.84
2023-04-19T00:36:19.994Z,95804.63
2023-04-19T00:38:47.140Z,95798.06
2023-04-19T00:41:13.769Z,95801.59
2023-04-19T00:43:40.449Z,95799.19
2023-04-19T00:46:07.381Z,95800.28
2023-04-19T00:48:35.205Z,95794.88
2023-04-19T00:51:02.404Z,95792.16
2023-04-19T00:53:29.180Z,95791.66
2023-04-19T00:55:59.969Z,95786.84
2023-04-19T00:58:27.116Z,95790.06
2023-04-19T01:00:53.784Z,95787.03
2023-04-19T01:06:01.446Z,95782.22
2023-04-19T01:08:28.654Z,95782.81
2023-04-19T01:10:55.355Z,95780.13
2023-04-19T01:13:22.267Z,95785.53
2023-04-19T01:15:49.241Z,95785.84
2023-04-19T01:18:16.068Z,95785.34
2023-04-19T01:20:43.117Z,95780.22
2023-04-19T01:23:10.183Z,95776.72
2023-04-19T01:25:37.435Z,95778.63
2023-04-19T01:28:04.628Z,95770.00
2023-04-19T01:30:31.532Z,95769.19
2023-04-19T01:32:58.587Z,95770.78
2023-04-19T01:35:25.670Z,95762.66
2023-04-19T01:37:52.537Z,95763.47
2023-04-19T01:40:19.561Z,95759.84
2023-04-19T01:42:46.385Z,95754.91
2023-04-19T01:45:13.207Z,95756.50
2023-04-19T01:47:40.188Z,95748.06
2023-04-19T01:50:07.868Z,95754.91
2023-04-19T01:52:35.930Z,95753.28
2023-04-19T01:55:02.793Z,95748.38
2023-04-19T01:57:30.239Z,95743.25
2023-04-19T01:59:57.498Z,95740.53
2023-04-19T02:02:24.597Z,95742.13
2023-04-19T02:04:51.422Z,95741.03
2023-04-19T02:07:18.374Z,95741.81
2023-04-19T02:09:45.210Z,95737.53
2023-04-19T02:12:12.462Z,95732.88
2023-04-19T02:14:39.163Z,95737.53
2023-04-19T02:17:06.168Z,95733.19
2023-04-19T02:19:32.973Z,95725.84
2023-04-19T02:21:59.838Z,95727.63
2023-04-19T02:24:26.598Z,95724.94
2023-04-19T02:26:53.581Z,95722.22
2023-04-19T02:29:20.471Z,95723.81
2023-04-19T02:31:47.337Z,95717.91
2023-04-19T02:34:14.380Z,95718.72
2023-04-19T02:36:41.349Z,95717.91
2023-04-19T02:39:08.205Z,95710.88
2023-04-19T02:41:38.171Z,95714.69
2023-04-19T02:44:05.178Z,95716.78
2023-04-19T02:46:32.081Z,95710.88
2023-04-19T02:49:01.295Z,95711.66
2023-04-19T02:51:28.179Z,95707.06
2023-04-19T02:53:55.243Z,95711.34
2023-04-19T02:56:22.057Z,95702.72
2023-04-19T02:58:49.026Z,95701.94
2023-04-19T03:01:16.421Z,95699.53
2023-04-19T03:03:43.328Z,95699.53
2023-04-19T03:06:10.217Z,95694.09
2023-04-19T03:08:37.045Z,95697.91
2023-04-19T03:11:03.906Z,95694.41
2023-04-19T03:13:31.205Z,95698.53
2023-04-19T03:15:58.237Z,95694.22
2023-04-19T03:18:24.988Z,95689.09
2023-04-19T03:20:54.851Z,95689.41
2023-04-19T03:23:21.897Z,95683.47
2023-04-19T03:25:50.126Z,95690.53
2023-04-19T03:28:46.110Z,95677.56
2023-04-19T03:31:22.371Z,95678.66
2023-04-19T03:33:51.173Z,95680.59
2023-04-19T03:36:19.872Z,95681.38
2023-04-19T03:38:47.404Z,95675.78
2023-04-19T03:41:26.248Z,95676.88
2023-04-19T03:44:28.486Z,95667.94
2023-04-19T03:46:55.362Z,95670.19
2023-04-19T03:49:26.363Z,95667.47
2023-04-19T03:52:03.826Z,95668.56
2023-04-19T03:54:30.761Z,95666.94
2023-04-19T03:56:59.651Z,95671.59
2023-04-19T03:59:26.769Z,95677.00
2023-04-19T04:01:55.051Z,95667.75
2023-04-19T04:04:23.000Z,95665.53
2023-04-19T04:06:50.273Z,95666.34
2023-04-19T04:09:17.450Z,95666.03
2023-04-19T04:11:44.489Z,95666.53
2023-04-19T04:14:12.104Z,95668.13
2023-04-19T04:16:39.457Z,95670.53
2023-04-19T04:19:07.138Z,95674.84
2023-04-19T04:21:36.830Z,95678.53
2023-04-19T04:24:05.268Z,95674.69
2023-04-19T04:26:52.641Z,95675.81
2023-04-19T04:29:25.175Z,95677.94
2023-04-19T04:31:55.113Z,95677.13
2023-04-19T04:34:26.276Z,95670.91
2023-04-19T04:37:01.758Z,95678.22
2023-04-19T04:39:29.667Z,95678.53
2023-04-19T04:41:56.920Z,95676.97
2023-04-19T04:44:24.737Z,95673.41
2023-04-19T04:46:51.766Z,95673.84
2023-04-19T04:49:24.405Z,95670.72
2023-04-19T04:51:51.376Z,95671.22
2023-04-19T04:54:18.716Z,95673.94
2023-04-19T04:56:47.028Z,95672.81
2023-04-19T04:59:14.558Z,95673.13
2023-04-19T05:01:44.391Z,95671.72
2023-04-19T05:04:11.884Z,95667.38
2023-04-19T05:06:38.712Z,95664.34
2023-04-19T05:09:05.425Z,95658.16
2023-04-19T05:11:36.200Z,95661.66
2023-04-19T05:14:03.747Z,95665.97
2023-04-19T05:16:33.193Z,95666.47
2023-04-19T05:19:00.313Z,95668.06
2023-04-19T05:21:29.889Z,95669.69
2023-04-19T05:23:57.122Z,95669.38
2023-04-19T05:26:23.805Z,95661.41
2023-04-19T05:28:51.555Z,95668.44
2023-04-19T05:31:28.717Z,95664.59
2023-04-19T05:34:13.994Z,95662.69
2023-04-19T05:36:40.868Z,95658.56
2023-04-19T05:39:07.512Z,95662.59
2023-04-19T05:41:34.141Z,95662.59
2023-04-19T05:44:00.868Z,95666.09
2023-04-19T05:46:27.676Z,95663.38
2023-04-19T05:48:55.914Z,95659.88
2023-04-19T05:51:41.177Z,95660.97
2023-04-19T05:54:11.969Z,95657.78
2023-04-19T05:56:40.842Z,95659.66
2023-04-19T05:59:07.586Z,95656.94
2023-04-19T06:01:34.179Z,95663.50
2023-04-19T06:04:01.406Z,95658.25
2023-04-19T06:06:28.371Z,95658.09
2023-04-19T06:08:55.240Z,95659.19
2023-04-19T06:11:28.840Z,95665.41
2023-04-19T06:13:58.481Z,95661.09
2023-04-19T06:16:25.704Z,95667.31
2023-04-19T06:18:52.549Z,95664.13
2023-04-19T06:21:19.326Z,95659.81
2023-04-19T06:23:45.990Z,95658.22
2023-04-19T06:26:12.580Z,95658.69
2023-04-19T06:28:39.195Z,95652.78
2023-04-19T06:31:05.915Z,95661.25
2023-04-19T06:33:32.610Z,95660.41
2023-04-19T06:35:59.229Z,95664.13
2023-04-19T06:38:26.033Z,95660.41
2023-04-19T06:40:52.757Z,95661.03
2023-04-19T06:43:19.476Z,95662.16
2023-04-19T06:45:46.249Z,95657.53
2023-04-19T06:48:12.914Z,95654.03
2023-04-19T06:50:39.583Z,95652.72
2023-04-19T06:53:06.205Z,95656.22
2023-04-19T06:55:32.858Z,95654.63
2023-04-19T06:57:59.563Z,95657.34
2023-04-19T07:00:26.104Z,95649.22
2023-04-19T07:02:52.869Z,95646.50
2023-04-19T07:05:19.696Z,95645.19
2023-04-19T07:07:46.280Z,95650.31
2023-04-19T07:10:12.922Z,95645.97
2023-04-19T07:12:39.525Z,95642.97
2023-04-19T07:15:06.701Z,95648.38
2023-04-19T07:17:35.192Z,95646.81
2023-04-19T07:20:02.436Z,95650.00
2023-04-19T07:22:29.035Z,95648.09
2023-04-19T07:24:55.726Z,95643.47
2023-04-19T07:27:22.506Z,95641.06
2023-04-19T07:29:49.149Z,95639.16
2023-04-19T07:32:15.996Z,95634.50
2023-04-19T07:34:42.682Z,95641.06
2023-04-19T07:37:09.715Z,95637.53
2023-04-19T07:39:36.375Z,95631.31
2023-04-19T07:42:03.035Z,95636.75
2023-04-19T07:44:29.925Z,95632.31
2023-04-19T07:46:56.685Z,95642.56
2023-04-19T07:49:23.419Z,95632.50
2023-04-19T07:51:50.292Z,95632.19
2023-04-19T07:54:17.087Z,95633.78
2023-04-19T07:56:44.216Z,95628.06
2023-04-19T07:59:10.862Z,95622.81
2023-04-19T08:01:37.639Z,95625.06
2023-04-19T08:04:05.098Z,95625.44
2023-04-19T08:06:31.937Z,95611.28
2023-04-19T08:08:58.555Z,95618.03
2023-04-19T08:11:25.355Z,95615.06
2023-04-19T08:14:04.411Z,95619.41
2023-04-19T08:19:06.038Z,95619.31
2023-04-19T08:21:40.591Z,95611.50
2023-04-19T08:24:08.638Z,95600.19
2023-04-19T08:26:35.221Z,95600.97
2023-04-19T08:29:01.809Z,95601.16
2023-04-19T08:31:28.545Z,95593.97
2023-04-19T08:33:55.259Z,95587.09
2023-04-19T08:36:28.685Z,95598.78
2023-04-19T08:39:29.308Z,95593.47
2023-04-19T08:41:59.034Z,95588.44
2023-04-19T08:44:36.476Z,95586.53
2023-04-19T08:47:04.894Z,95588.38
2023-04-19T08:49:35.299Z,95587.69
2023-04-19T08:52:02.755Z,95583.94
2023-04-19T08:54:35.112Z,95586.16
2023-04-19T08:57:02.697Z,95583.72
2023-04-19T08:59:29.338Z,95578.28
2023-04-19T09:01:56.040Z,95570.69
2023-04-19T09:04:36.369Z,95573.56
2023-04-19T09:07:03.305Z,95576.63
2023-04-19T09:09:37.005Z,95572.63
2023-04-19T09:12:18.146Z,95570.41
2023-04-19T09:14:59.757Z,95564.50
2023-04-19T09:17:28.564Z,95562.91
2023-04-19T09:19:55.459Z,95561.78
2023-04-19T09:22:22.257Z,95552.91
2023-04-19T09:27:32.650Z,95553.66
2023-04-19T09:30:01.177Z,95551.56
2023-04-19T09:32:28.940Z,95540.47
2023-04-19T09:34:57.961Z,95548.75
2023-04-19T09:39:59.822Z,95533.69
2023-04-19T09:43:04.366Z,95535.94
2023-04-19T09:45:45.990Z,95538.72
2023-04-19T09:48:14.004Z,95539.38
2023-04-19T09:50:59.574Z,95529.53
2023-04-19T09:53:30.824Z,95529.34
2023-04-19T09:56:02.251Z,95521.94
2023-04-19T09:58:38.100Z,95521.94
2023-04-19T10:01:17.484Z,95513.94
2023-04-19T10:03:49.575Z,95516.47
2023-04-19T10:08:50.611Z,95499.50
2023-04-19T10:11:18.904Z,95498.97
2023-04-19T10:13:48.535Z,95505.34
2023-04-19T10:16:20.139Z,95497.88
2023-04-19T10:18:49.633Z,95488.38
2023-04-19T10:21:16.404Z,95500.00
2023-04-19T10:23:43.121Z,95490.38
2023-04-19T10:26:09.797Z,95484.06
2023-04-19T10:28:36.473Z,95480.31
2023-04-19T10:31:04.779Z,95483.31
2023-04-19T10:33:35.708Z,95476.97
2023-04-19T10:36:02.804Z,95472.31
2023-04-19T10:38:47.281Z,95469.69
2023-04-19T10:41:18.894Z,95473.25
2023-04-19T10:43:46.712Z,95460.59
2023-04-19T10:46:23.372Z,95453.88
2023-04-19T10:49:00.485Z,95454.44
2023-04-19T10:51:35.518Z,95457.31
2023-04-19T10:54:03.101Z,95452.06
2023-04-19T10:56:32.841Z,95452.41
2023-04-19T10:59:02.457Z,95447.72
2023-04-19T11:01:35.017Z,95454.31
2023-04-19T11:04:01.850Z,95455.88
2023-04-19T11:06:28.755Z,95444.00
2023-04-19T11:08:55.339Z,95451.78
2023-04-19T11:11:21.935Z,95446.75
2023-04-19T11:13:48.789Z,95443.84
2023-04-19T11:16:17.158Z,95440.81
2023-04-19T11:18:45.018Z,95440.16
2023-04-19T11:21:15.087Z,95429.81
2023-04-19T11:23:41.789Z,95432.94
2023-04-19T11:26:11.484Z,95433.66
2023-04-19T11:28:39.397Z,95433.34
2023-04-19T11:31:07.029Z,95436.94
2023-04-19T11:33:34.751Z,95433.25
2023-04-19T11:36:01.444Z,95426.28
2023-04-19T11:38:29.099Z,95430.44
2023-04-19T11:41:02.967Z,95419.25
2023-04-19T11:43:36.888Z,95423.56
2023-04-19T11:46:08.260Z,95419.94
2023-04-19T11:48:35.284Z,95417.47
2023-04-19T11:51:02.630Z,95420.09
2023-04-19T11:53:31.794Z,95420.75
2023-04-19T11:55:58.378Z,95412.94
2023-04-19T11:58:32.034Z,95412.63
2023-04-19T12:01:10.304Z,95415.03
2023-04-19T12:03:48.169Z,95425.00
2023-04-19T12:06:17.050Z,95418.28
2023-04-19T12:08:46.410Z,95416.19
2023-04-19T12:11:14.018Z,95420.72
2023-04-19T12:13:40.736Z,95410.47
2023-04-19T12:16:08.198Z,95411.56
2023-04-19T12:18:51.591Z,95417.44
2023-04-19T12:21:28.966Z,95416.13
2023-04-19T12:24:00.335Z,95413.28
2023-04-19T12:26:28.343Z,95420.16
2023-04-19T12:28:59.134Z,95420.06
2023-04-19T12:31:26.082Z,95421.84
2023-04-19T12:33:53.037Z,95418.38
2023-04-19T12:36:19.929Z,95414.72
2023-04-19T12:38:46.540Z,95415.69
2023-04-19T12:41:13.077Z,95417.47
2023-04-19T12:43:39.749Z,95414.25
2023-04-19T12:46:06.377Z,95415.53
2023-04-19T12:48:33.184Z,95405.44
2023-04-19T12:51:00.370Z,95408.47
2023-04-19T12:53:27.027Z,95406.41
2023-04-19T12:55:53.779Z,95410.41
2023-04-19T12:58:20.336Z,95403.69
2023-04-19T13:00:47.373Z,95404.81
2023-04-19T13:03:14.131Z,95403.56
2023-04-19T13:05:40.865Z,95395.06
2023-04-19T13:08:07.461Z,95401.94
2023-04-19T13:10:34.115Z,95401.13
2023-04-19T13:13:00.779Z,95403.06
2023-04-19T13:15:27.651Z,95395.84
2023-04-19T13:17:54.399Z,95396.81
2023-04-19T13:20:21.230Z,95387.25
2023-04-19T13:22:47.827Z,95397.13
2023-04-19T13:25:14.428Z,95397.34
2023-04-19T13:27:41.095Z,95387.72
2023-04-19T13:30:08.609Z,95393.34
2023-04-19T13:32:35.340Z,95382.16
2023-04-19T13:35:02.213Z,95385.81
2023-04-19T13:37:28.961Z,95383.56
2023-04-19T13:40:06.966Z,95377.00
2023-04-19T13:42:37.847Z,95381.34
2023-04-19T13:45:04.868Z,95372.53
2023-04-19T13:47:31.710Z,95369.66
2023-04-19T13:49:58.450Z,95376.69
2023-04-19T13:52:24.992Z,95369.00
2023-04-19T13:54:51.545Z,95366.75
2023-04-19T13:57:18.416Z,95371.25
2023-04-19T13:59:45.037Z,95368.03
2023-04-19T14:02:11.764Z,95370.44
2023-04-19T14:04:38.463Z,95365.19
2023-04-19T14:07:05.176Z,95371.56
2023-04-19T14:09:31.745Z,95378.78
2023-04-19T14:11:58.585Z,95386.13
2023-04-19T14:14:25.284Z,95379.88
2023-04-19T14:16:51.951Z,95384.84
2023-04-19T14:19:18.614Z,95388.38
2023-04-19T14:21:45.164Z,95389.78
2023-04-19T14:24:11.810Z,95390.91
2023-04-19T14:26:38.385Z,95393.44
2023-04-19T14:29:04.952Z,95399.50
2023-04-19T14:31:31.827Z,95392.97
2023-04-19T14:33:58.837Z,95399.31
2023-04-19T14:36:25.664Z,95391.94
2023-04-19T14:38:52.333Z,95399.47
2023-04-19T14:41:19.073Z,95403.44
2023-04-19T14:43:45.607Z,95405.66
2023-04-19T14:46:12.330Z,95414.38
2023-04-19T14:48:39.039Z,95402.44
2023-04-19T14:51:05.754Z,95414.50
2023-04-19T14:53:33.933Z,95410.34
2023-04-19T14:56:03.774Z,95409.41
2023-04-19T14:58:30.522Z,95411.28
2023-04-19T15:00:58.854Z,95410.88
2023-04-19T15:03:25.976Z,95411.94
2023-04-19T15:05:52.979Z,95415.13
2023-04-19T15:08:30.456Z,95419.25
2023-04-19T15:10:57.546Z,95421.34
2023-04-19T15:13:24.337Z,95423.63
2023-04-19T15:15:51.049Z,95420.63
2023-04-19T15:18:17.708Z,95423.75
2023-04-19T15:20:44.344Z,95423.63
2023-04-19T15:23:10.969Z,95429.78
2023-04-19T15:25:37.617Z,95431.44
2023-04-19T15:28:04.465Z,95436.47
2023-04-19T15:30:31.004Z,95433.09
2023-04-19T15:32:57.729Z,95431.91
2023-04-19T15:35:24.306Z,95437.81
2023-04-19T15:37:50.875Z,95443.34
2023-04-19T15:40:17.648Z,95443.47
2023-04-19T15:42:44.194Z,95442.94
2023-04-19T15:45:11.062Z,95443.16
2023-04-19T15:47:37.639Z,95437.75
2023-04-19T15:50:04.444Z,95441.16
2023-04-19T15:52:31.016Z,95442.38
2023-04-19T15:54:57.558Z,95439.78
2023-04-19T15:57:24.179Z,95436.88
2023-04-19T15:59:50.766Z,95453.00
2023-04-19T16:02:17.484Z,95449.19
2023-04-19T16:04:47.248Z,95452.03
2023-04-19T16:07:14.376Z,95456.59
2023-04-19T16:09:40.920Z,95456.81
2023-04-19T16:12:07.555Z,95450.81
2023-04-19T16:14:34.149Z,95454.63
2023-04-19T16:17:00.704Z,95459.13
2023-04-19T16:19:27.362Z,95458.81
2023-04-19T16:21:53.951Z,95457.38
2023-04-19T16:24:20.641Z,95473.84
2023-04-19T16:26:47.193Z,95468.47
2023-04-19T16:29:13.757Z,95471.09
2023-04-19T16:31:40.455Z,95468.63
2023-04-19T16:34:07.009Z,95482.88
2023-04-19T16:36:33.681Z,95477.88
2023-04-19T16:39:00.470Z,95487.97
2023-04-19T16:41:27.169Z,95481.91
2023-04-19T16:43:55.968Z,95476.47
2023-04-19T16:46:22.894Z,95480.09
2023-04-19T16:48:52.319Z,95483.88
2023-04-19T16:51:18.857Z,95484.28
2023-04-19T16:53:45.398Z,95486.09
2023-04-19T16:56:12.245Z,95484.59
2023-04-19T16:58:38.827Z,95484.69
2023-04-19T17:01:05.838Z,95481.78
2023-04-19T17:03:32.578Z,95480.47
2023-04-19T17:05:59.311Z,95477.28
2023-04-19T17:08:25.955Z,95471.88
2023-04-19T17:10:52.666Z,95470.75
2023-04-19T17:13:19.484Z,95471.88
2023-04-19T17:15:46.472Z,95468.03
2023-04-19T17:18:13.160Z,95470.44
2023-04-19T17:20:39.960Z,95460.47
2023-04-19T17:23:06.751Z,95471.75
2023-04-19T17:25:33.433Z,95460.66
2023-04-19T17:28:00.064Z,95460.34
2023-04-19T17:30:27.286Z,95450.94
2023-04-19T17:32:53.866Z,95449.84
2023-04-19T17:35:20.444Z,95455.25
2023-04-19T17:37:47.036Z,95458.44
2023-04-19T17:40:13.586Z,95453.03
2023-04-19T17:42:40.214Z,95460.34
2023-04-19T17:45:07.184Z,95444.91
2023-04-19T17:47:33.772Z,95437.59
2023-04-19T17:50:09.159Z,95438.72
2023-04-19T17:52:36.067Z,95424.72
2023-04-19T17:55:03.182Z,95421.78
2023-04-19T17:57:29.817Z,95430.41
2023-04-19T17:59:56.569Z,95429.59
2023-04-19T18:02:23.536Z,95432.59
2023-04-19T18:04:50.266Z,95435.91
2023-04-19T18:07:16.851Z,95432.50
2023-04-19T18:09:43.476Z,95442.84
2023-04-19T18:12:10.081Z,95434.19
2023-04-19T18:14:36.648Z,95433.41
2023-04-19T18:17:03.303Z,95429.91
2023-04-19T18:19:29.854Z,95431.00
2023-04-19T18:21:56.467Z,95430.81
2023-04-19T18:24:23.070Z,95434.59
2023-04-19T18:26:49.834Z,95431.69
2023-04-19T18:29:16.643Z,95443.09
2023-04-19T18:31:43.530Z,95439.91
2023-04-19T18:34:12.440Z,95440.50
2023-04-19T18:36:39.333Z,95443.50
2023-04-19T18:39:05.902Z,95441.09
2023-04-19T18:41:32.479Z,95450.28
2023-04-19T18:44:30.044Z,95449.81
2023-04-19T18:46:45.767Z,95432.75
2023-04-19T18:49:12.384Z,95428.78
2023-04-19T18:51:39.003Z,95441.47
2023-04-19T18:54:05.665Z,95440.19
2023-04-19T18:57:11.017Z,95449.06
2023-04-19T18:59:19.439Z,95447.78
2023-04-19T19:01:46.335Z,95437.88
2023-04-19T19:04:42.571Z,95437.31
2023-04-19T19:07:18.294Z,95440.41
2023-04-19T19:09:56.582Z,95453.41
2023-04-19T19:12:23.570Z,95462.59
2023-04-19T19:14:50.117Z,95463.72
2023-04-19T19:17:16.823Z,95470.81
2023-04-19T19:19:43.660Z,95469.47
2023-04-19T19:22:25.013Z,95483.28
2023-04-19T19:25:00.434Z,95487.69
2023-04-19T19:27:30.597Z,95489.66
2023-04-19T19:29:57.690Z,95481.25
2023-04-19T19:32:24.416Z,95465.06
2023-04-19T19:34:56.314Z,95475.06
2023-04-19T19:37:27.687Z,95473.16
2023-04-19T19:39:56.437Z,95476.97
2023-04-19T19:42:23.688Z,95480.16
2023-04-19T19:44:53.908Z,95474.75
2023-04-19T19:47:20.526Z,95479.06
2023-04-19T19:50:17.258Z,95481.75
2023-04-19T19:52:33.844Z,95476.66
2023-04-19T19:55:00.546Z,95466.97
2023-04-19T20:00:13.998Z,95467.47
2023-04-19T20:02:55.099Z,95461.56
2023-04-19T20:05:24.093Z,95459.66
2023-04-19T20:10:20.426Z,95452.66
2023-04-19T20:12:47.418Z,95453.47
2023-04-19T20:15:14.270Z,95455.88
2023-04-19T20:17:41.074Z,95452.88
2023-04-19T20:20:08.949Z,95452.03
2023-04-19T20:22:35.946Z,95454.44
2023-04-19T20:25:02.615Z,95458.78
2023-04-19T20:27:29.200Z,95460.09
2023-04-19T20:29:56.696Z,95458.97
2023-04-19T20:32:23.490Z,95461.19
2023-04-19T20:34:50.137Z,95460.09
2023-04-19T20:37:16.677Z,95451.16
2023-04-19T20:39:43.223Z,95456.56
2023-04-19T20:42:09.852Z,95444.19
2023-04-19T20:44:36.402Z,95452.28
2023-04-19T20:47:02.995Z,95453.06
2023-04-19T20:49:29.533Z,95452.28
2023-04-19T20:51:56.193Z,95451.75
2023-04-19T20:54:22.811Z,95459.84
2023-04-19T20:56:49.549Z,95452.03
2023-04-19T20:59:16.367Z,95443.44
2023-04-19T21:01:43.331Z,95451.06
2023-04-19T21:04:10.070Z,95451.34
2023-04-19T21:06:36.749Z,95457.03
2023-04-19T21:09:03.347Z,95458.41
2023-04-19T21:11:29.927Z,95457.13
2023-04-19T21:13:56.726Z,95447.41
2023-04-19T21:16:23.414Z,95442.00
2023-04-19T21:18:50.002Z,95443.63
2023-04-19T21:21:16.588Z,95442.00
2023-04-19T21:23:43.192Z,95432.00
2023-04-19T21:26:09.861Z,95427.44
2023-04-19T21:28:36.402Z,95424.44
2023-04-19T21:31:03.008Z,95427.13
2023-04-19T21:33:29.641Z,95423.31
2023-04-19T21:35:56.262Z,95428.72
2023-04-19T21:38:22.840Z,95417.91
2023-04-19T21:40:49.388Z,95421.44
2023-04-19T21:43:17.558Z,95423.03
2023-04-19T21:45:44.189Z,95410.94
2023-04-19T21:48:10.857Z,95410.94
2023-04-19T21:50:37.576Z,95413.94
2023-04-19T21:53:04.179Z,95417.72
2023-04-19T21:55:30.711Z,95418.31
2023-04-19T21:57:57.253Z,95407.00
2023-04-19T22:00:24.077Z,95403.81
2023-04-19T22:02:51.044Z,95404.09
2023-04-19T22:05:17.911Z,95399.78
2023-04-19T22:07:44.510Z,95400.88
2023-04-19T22:10:11.302Z,95400.06
2023-04-19T22:12:48.049Z,95404.97
2023-04-19T22:15:22.126Z,95397.19
2023-04-19T22:17:48.985Z,95404.16
2023-04-19T22:20:15.678Z,95397.19
2023-04-19T22:22:42.365Z,95396.34
2023-04-19T22:25:09.591Z,95404.97
2023-04-19T22:27:36.189Z,95390.97
2023-04-19T22:30:03.642Z,95388.78
2023-04-19T22:32:30.392Z,95392.56
2023-04-19T22:34:57.009Z,95392.56
2023-04-19T22:37:23.759Z,95387.47
2023-04-19T22:39:50.426Z,95378.56
2023-04-19T22:42:17.005Z,95385.56
2023-04-19T22:44:43.598Z,95383.97
2023-04-19T22:47:10.253Z,95368.88
2023-04-19T22:49:36.844Z,95371.56
2023-04-19T22:52:03.723Z,95366.16
2023-04-19T22:54:30.258Z,95354.56
2023-04-19T22:56:56.786Z,95360.75
2023-04-19T22:59:23.412Z,95367.78
2023-04-19T23:01:50.198Z,95360.75
2023-04-19T23:04:16.966Z,95361.56
2023-04-19T23:06:43.790Z,95367.78
2023-04-19T23:09:11.066Z,95363.97
2023-04-19T23:11:37.727Z,95365.56
2023-04-19T23:14:04.475Z,95366.66
2023-04-19T23:16:31.082Z,95367.19
2023-04-19T23:18:57.622Z,95367.19
2023-04-19T23:21:24.198Z,95368.78
2023-04-19T23:23:50.872Z,95367.69
2023-04-19T23:26:17.598Z,95365.78
2023-04-19T23:28:44.204Z,95359.59
2023-04-19T23:31:10.899Z,95355.28
2023-04-19T23:33:37.457Z,95349.88
2023-04-19T23:36:04.359Z,95341.78
2023-04-19T23:38:31.034Z,95341.28
2023-04-19T23:40:57.580Z,95339.38
2023-04-19T23:43:24.215Z,95332.09
2023-04-19T23:45:50.862Z,95334.50
2023-04-19T23:48:17.613Z,95333.69
2023-04-19T23:50:44.148Z,95325.59
2023-04-19T23:53:11.493Z,95322.38
2023-04-19T23:55:38.343Z,95317.00
2023-04-19T23:58:05.074Z,95309.97
